sensor_id;sensor_type;location;lat;lon;timestamp;P1;durP1;ratioP1;P2;durP2;ratioP2
49123;SDS011;48506;48.202;16.274;2024-03-06T00:01:53;40.03;;;23.17;;
49123;SDS011;48506;48.202;16.274;2024-03-06T00:04:20;43.50;;;23.42;;
49123;SDS011;48506;48.202;16.274;2024-03-06T00:06:46;45.60;;;24.70;;
49123;SDS011;48506;48.202;16.274;2024-03-06T00:09:11;44.45;;;24.05;;
49123;SDS011;48506;48.202;16.274;2024-03-06T00:11:37;39.85;;;22.58;;
49123;SDS011;48506;48.202;16.274;2024-03-06T00:14:03;40.92;;;22.65;;
49123;SDS011;48506;48.202;16.274;2024-03-06T00:16:32;42.95;;;24.17;;
49123;SDS011;48506;48.202;16.274;2024-03-06T00:18:59;43.42;;;24.00;;
49123;SDS011;48506;48.202;16.274;2024-03-06T00:21:25;42.75;;;24.08;;
49123;SDS011;48506;48.202;16.274;2024-03-06T00:23:51;44.17;;;23.77;;
49123;SDS011;48506;48.202;16.274;2024-03-06T00:26:16;51.78;;;25.95;;
49123;SDS011;48506;48.202;16.274;2024-03-06T00:28:42;45.85;;;24.42;;
49123;SDS011;48506;48.202;16.274;2024-03-06T00:31:08;46.53;;;25.63;;
49123;SDS011;48506;48.202;16.274;2024-03-06T00:33:34;42.30;;;22.83;;
49123;SDS011;48506;48.202;16.274;2024-03-06T00:36:00;47.85;;;26.25;;
49123;SDS011;48506;48.202;16.274;2024-03-06T00:38:25;54.88;;;27.42;;
49123;SDS011;48506;48.202;16.274;2024-03-06T00:40:51;48.58;;;25.63;;
49123;SDS011;48506;48.202;16.274;2024-03-06T00:43:18;51.15;;;27.83;;
49123;SDS011;48506;48.202;16.274;2024-03-06T00:45:43;54.00;;;27.17;;
49123;SDS011;48506;48.202;16.274;2024-03-06T00:48:09;53.03;;;27.27;;
49123;SDS011;48506;48.202;16.274;2024-03-06T00:50:35;57.78;;;29.10;;
49123;SDS011;48506;48.202;16.274;2024-03-06T00:53:01;60.67;;;30.42;;
49123;SDS011;48506;48.202;16.274;2024-03-06T00:55:27;52.85;;;28.35;;
49123;SDS011;48506;48.202;16.274;2024-03-06T00:57:53;57.67;;;30.80;;
49123;SDS011;48506;48.202;16.274;2024-03-06T01:00:19;59.00;;;27.92;;
49123;SDS011;48506;48.202;16.274;2024-03-06T01:02:45;55.60;;;28.75;;
49123;SDS011;48506;48.202;16.274;2024-03-06T01:05:11;49.45;;;27.83;;
49123;SDS011;48506;48.202;16.274;2024-03-06T01:07:40;55.45;;;27.48;;
49123;SDS011;48506;48.202;16.274;2024-03-06T01:10:06;54.40;;;29.60;;
49123;SDS011;48506;48.202;16.274;2024-03-06T01:12:33;65.25;;;29.20;;
49123;SDS011;48506;48.202;16.274;2024-03-06T01:14:59;55.50;;;29.65;;
49123;SDS011;48506;48.202;16.274;2024-03-06T01:17:25;58.67;;;30.05;;
49123;SDS011;48506;48.202;16.274;2024-03-06T01:19:51;60.67;;;30.13;;
49123;SDS011;48506;48.202;16.274;2024-03-06T01:22:17;56.67;;;28.83;;
49123;SDS011;48506;48.202;16.274;2024-03-06T01:24:43;63.33;;;29.48;;
49123;SDS011;48506;48.202;16.274;2024-03-06T01:27:10;57.50;;;29.27;;
49123;SDS011;48506;48.202;16.274;2024-03-06T01:29:36;55.45;;;29.98;;
49123;SDS011;48506;48.202;16.274;2024-03-06T01:32:02;61.83;;;31.08;;
49123;SDS011;48506;48.202;16.274;2024-03-06T01:34:28;58.95;;;30.83;;
49123;SDS011;48506;48.202;16.274;2024-03-06T01:36:55;61.03;;;31.55;;
49123;SDS011;48506;48.202;16.274;2024-03-06T01:39:21;64.25;;;32.30;;
49123;SDS011;48506;48.202;16.274;2024-03-06T01:41:47;62.67;;;31.13;;
49123;SDS011;48506;48.202;16.274;2024-03-06T01:44:14;67.22;;;33.72;;
49123;SDS011;48506;48.202;16.274;2024-03-06T01:46:42;66.85;;;33.72;;
49123;SDS011;48506;48.202;16.274;2024-03-06T01:49:09;56.85;;;27.67;;
49123;SDS011;48506;48.202;16.274;2024-03-06T01:51:36;66.55;;;32.20;;
49123;SDS011;48506;48.202;16.274;2024-03-06T01:54:02;61.80;;;31.02;;
49123;SDS011;48506;48.202;16.274;2024-03-06T01:56:30;61.67;;;29.50;;
49123;SDS011;48506;48.202;16.274;2024-03-06T01:58:58;67.07;;;33.55;;
49123;SDS011;48506;48.202;16.274;2024-03-06T02:01:24;62.15;;;28.60;;
49123;SDS011;48506;48.202;16.274;2024-03-06T02:03:51;61.65;;;28.42;;
49123;SDS011;48506;48.202;16.274;2024-03-06T02:06:18;64.85;;;32.25;;
49123;SDS011;48506;48.202;16.274;2024-03-06T02:08:45;60.88;;;30.52;;
49123;SDS011;48506;48.202;16.274;2024-03-06T02:11:11;62.83;;;32.65;;
49123;SDS011;48506;48.202;16.274;2024-03-06T02:13:39;56.78;;;29.20;;
49123;SDS011;48506;48.202;16.274;2024-03-06T02:16:05;67.03;;;32.55;;
49123;SDS011;48506;48.202;16.274;2024-03-06T02:18:31;63.90;;;33.53;;
49123;SDS011;48506;48.202;16.274;2024-03-06T02:20:57;69.60;;;33.65;;
49123;SDS011;48506;48.202;16.274;2024-03-06T02:23:23;61.45;;;32.03;;
49123;SDS011;48506;48.202;16.274;2024-03-06T02:25:49;75.43;;;35.22;;
49123;SDS011;48506;48.202;16.274;2024-03-06T02:28:16;58.30;;;30.23;;
49123;SDS011;48506;48.202;16.274;2024-03-06T02:30:43;79.00;;;37.05;;
49123;SDS011;48506;48.202;16.274;2024-03-06T02:33:09;64.95;;;35.10;;
49123;SDS011;48506;48.202;16.274;2024-03-06T02:35:36;72.70;;;35.28;;
49123;SDS011;48506;48.202;16.274;2024-03-06T02:38:04;75.93;;;35.83;;
49123;SDS011;48506;48.202;16.274;2024-03-06T02:40:30;75.93;;;34.35;;
49123;SDS011;48506;48.202;16.274;2024-03-06T02:42:57;75.25;;;36.33;;
49123;SDS011;48506;48.202;16.274;2024-03-06T02:45:23;80.38;;;37.75;;
49123;SDS011;48506;48.202;16.274;2024-03-06T02:47:48;81.20;;;37.60;;
49123;SDS011;48506;48.202;16.274;2024-03-06T02:50:15;80.20;;;37.80;;
49123;SDS011;48506;48.202;16.274;2024-03-06T02:52:41;83.70;;;37.58;;
49123;SDS011;48506;48.202;16.274;2024-03-06T02:55:07;87.03;;;41.55;;
49123;SDS011;48506;48.202;16.274;2024-03-06T02:57:33;84.03;;;41.03;;
49123;SDS011;48506;48.202;16.274;2024-03-06T02:59:59;79.25;;;38.22;;
49123;SDS011;48506;48.202;16.274;2024-03-06T03:02:25;99.13;;;42.83;;
49123;SDS011;48506;48.202;16.274;2024-03-06T03:04:51;94.05;;;42.08;;
49123;SDS011;48506;48.202;16.274;2024-03-06T03:07:17;89.05;;;41.92;;
49123;SDS011;48506;48.202;16.274;2024-03-06T03:09:46;69.75;;;31.48;;
49123;SDS011;48506;48.202;16.274;2024-03-06T03:12:13;90.85;;;40.85;;
49123;SDS011;48506;48.202;16.274;2024-03-06T03:14:42;80.78;;;38.53;;
49123;SDS011;48506;48.202;16.274;2024-03-06T03:17:08;66.77;;;30.30;;
49123;SDS011;48506;48.202;16.274;2024-03-06T03:19:34;79.78;;;38.05;;
49123;SDS011;48506;48.202;16.274;2024-03-06T03:22:00;80.75;;;40.03;;
49123;SDS011;48506;48.202;16.274;2024-03-06T03:24:29;73.70;;;36.65;;
49123;SDS011;48506;48.202;16.274;2024-03-06T03:26:55;84.65;;;39.20;;
49123;SDS011;48506;48.202;16.274;2024-03-06T03:29:21;77.95;;;39.58;;
49123;SDS011;48506;48.202;16.274;2024-03-06T03:31:47;79.63;;;38.63;;
49123;SDS011;48506;48.202;16.274;2024-03-06T03:34:13;90.50;;;40.65;;
49123;SDS011;48506;48.202;16.274;2024-03-06T03:36:42;77.30;;;38.40;;
49123;SDS011;48506;48.202;16.274;2024-03-06T03:39:11;79.60;;;38.60;;
49123;SDS011;48506;48.202;16.274;2024-03-06T03:41:47;80.78;;;37.88;;
49123;SDS011;48506;48.202;16.274;2024-03-06T03:44:14;74.25;;;36.35;;
49123;SDS011;48506;48.202;16.274;2024-03-06T03:46:44;72.07;;;34.90;;
49123;SDS011;48506;48.202;16.274;2024-03-06T03:49:10;68.38;;;34.78;;
49123;SDS011;48506;48.202;16.274;2024-03-06T03:51:37;70.63;;;34.80;;
49123;SDS011;48506;48.202;16.274;2024-03-06T03:54:04;65.88;;;35.15;;
49123;SDS011;48506;48.202;16.274;2024-03-06T03:56:30;75.95;;;37.30;;
49123;SDS011;48506;48.202;16.274;2024-03-06T03:58:57;69.55;;;35.90;;
49123;SDS011;48506;48.202;16.274;2024-03-06T04:01:24;71.78;;;36.58;;
49123;SDS011;48506;48.202;16.274;2024-03-06T04:03:51;73.93;;;34.95;;
49123;SDS011;48506;48.202;16.274;2024-03-06T04:06:17;69.70;;;36.05;;
49123;SDS011;48506;48.202;16.274;2024-03-06T04:08:44;78.32;;;37.53;;
49123;SDS011;48506;48.202;16.274;2024-03-06T04:11:10;74.75;;;36.70;;
49123;SDS011;48506;48.202;16.274;2024-03-06T04:13:38;81.35;;;36.70;;
49123;SDS011;48506;48.202;16.274;2024-03-06T04:16:04;64.57;;;32.60;;
49123;SDS011;48506;48.202;16.274;2024-03-06T04:18:31;76.63;;;37.28;;
49123;SDS011;48506;48.202;16.274;2024-03-06T04:21:06;73.38;;;37.03;;
49123;SDS011;48506;48.202;16.274;2024-03-06T04:23:33;74.60;;;36.78;;
49123;SDS011;48506;48.202;16.274;2024-03-06T04:25:59;78.47;;;36.58;;
49123;SDS011;48506;48.202;16.274;2024-03-06T04:28:25;76.63;;;36.20;;
49123;SDS011;48506;48.202;16.274;2024-03-06T04:30:51;73.88;;;37.28;;
49123;SDS011;48506;48.202;16.274;2024-03-06T04:33:17;78.53;;;37.03;;
49123;SDS011;48506;48.202;16.274;2024-03-06T04:35:43;73.68;;;35.97;;
49123;SDS011;48506;48.202;16.274;2024-03-06T04:38:09;80.03;;;37.90;;
49123;SDS011;48506;48.202;16.274;2024-03-06T04:40:35;73.28;;;34.90;;
49123;SDS011;48506;48.202;16.274;2024-03-06T04:43:01;74.30;;;34.28;;
49123;SDS011;48506;48.202;16.274;2024-03-06T04:45:26;76.57;;;36.20;;
49123;SDS011;48506;48.202;16.274;2024-03-06T04:47:54;71.10;;;35.67;;
49123;SDS011;48506;48.202;16.274;2024-03-06T04:50:20;75.70;;;34.25;;
49123;SDS011;48506;48.202;16.274;2024-03-06T04:52:46;71.55;;;35.65;;
49123;SDS011;48506;48.202;16.274;2024-03-06T04:55:12;72.85;;;35.42;;
49123;SDS011;48506;48.202;16.274;2024-03-06T04:57:42;71.38;;;34.75;;
49123;SDS011;48506;48.202;16.274;2024-03-06T05:00:09;72.22;;;35.47;;
49123;SDS011;48506;48.202;16.274;2024-03-06T05:02:36;75.88;;;35.22;;
49123;SDS011;48506;48.202;16.274;2024-03-06T05:05:03;70.78;;;34.72;;
49123;SDS011;48506;48.202;16.274;2024-03-06T05:07:29;66.97;;;34.28;;
49123;SDS011;48506;48.202;16.274;2024-03-06T05:09:57;77.95;;;34.63;;
49123;SDS011;48506;48.202;16.274;2024-03-06T05:12:26;67.28;;;33.70;;
49123;SDS011;48506;48.202;16.274;2024-03-06T05:14:53;72.70;;;35.38;;
49123;SDS011;48506;48.202;16.274;2024-03-06T05:17:20;67.70;;;33.40;;
49123;SDS011;48506;48.202;16.274;2024-03-06T05:19:47;66.30;;;32.25;;
49123;SDS011;48506;48.202;16.274;2024-03-06T05:22:15;71.13;;;33.50;;
49123;SDS011;48506;48.202;16.274;2024-03-06T05:24:41;63.45;;;31.90;;
49123;SDS011;48506;48.202;16.274;2024-03-06T05:27:08;73.65;;;34.30;;
49123;SDS011;48506;48.202;16.274;2024-03-06T05:29:35;73.28;;;33.13;;
49123;SDS011;48506;48.202;16.274;2024-03-06T05:32:02;71.60;;;36.17;;
49123;SDS011;48506;48.202;16.274;2024-03-06T05:34:32;81.03;;;36.22;;
49123;SDS011;48506;48.202;16.274;2024-03-06T05:37:01;73.78;;;34.67;;
49123;SDS011;48506;48.202;16.274;2024-03-06T05:39:29;77.22;;;35.63;;
49123;SDS011;48506;48.202;16.274;2024-03-06T05:41:59;77.45;;;34.97;;
49123;SDS011;48506;48.202;16.274;2024-03-06T05:44:28;73.53;;;38.45;;
49123;SDS011;48506;48.202;16.274;2024-03-06T05:46:55;71.28;;;34.60;;
49123;SDS011;48506;48.202;16.274;2024-03-06T05:49:22;72.30;;;34.47;;
49123;SDS011;48506;48.202;16.274;2024-03-06T05:51:48;74.18;;;32.13;;
49123;SDS011;48506;48.202;16.274;2024-03-06T05:54:14;102.35;;;32.92;;
49123;SDS011;48506;48.202;16.274;2024-03-06T05:56:40;74.47;;;33.88;;
49123;SDS011;48506;48.202;16.274;2024-03-06T05:59:07;65.72;;;29.83;;
49123;SDS011;48506;48.202;16.274;2024-03-06T06:01:34;68.93;;;33.60;;
49123;SDS011;48506;48.202;16.274;2024-03-06T06:04:00;62.60;;;31.65;;
49123;SDS011;48506;48.202;16.274;2024-03-06T06:06:27;64.75;;;30.60;;
49123;SDS011;48506;48.202;16.274;2024-03-06T06:08:53;62.25;;;30.73;;
49123;SDS011;48506;48.202;16.274;2024-03-06T06:11:19;60.78;;;28.92;;
49123;SDS011;48506;48.202;16.274;2024-03-06T06:13:45;52.63;;;25.83;;
49123;SDS011;48506;48.202;16.274;2024-03-06T06:16:11;51.85;;;24.70;;
49123;SDS011;48506;48.202;16.274;2024-03-06T06:18:39;44.50;;;23.60;;
49123;SDS011;48506;48.202;16.274;2024-03-06T06:21:07;53.33;;;26.20;;
49123;SDS011;48506;48.202;16.274;2024-03-06T06:23:33;50.97;;;23.80;;
49123;SDS011;48506;48.202;16.274;2024-03-06T06:26:00;42.15;;;22.85;;
49123;SDS011;48506;48.202;16.274;2024-03-06T06:28:26;46.58;;;25.13;;
49123;SDS011;48506;48.202;16.274;2024-03-06T06:30:53;46.72;;;24.08;;
49123;SDS011;48506;48.202;16.274;2024-03-06T06:33:19;50.25;;;25.63;;
49123;SDS011;48506;48.202;16.274;2024-03-06T06:35:46;48.40;;;23.52;;
49123;SDS011;48506;48.202;16.274;2024-03-06T06:38:12;48.90;;;25.90;;
49123;SDS011;48506;48.202;16.274;2024-03-06T06:40:39;48.65;;;25.65;;
49123;SDS011;48506;48.202;16.274;2024-03-06T06:43:08;51.70;;;25.70;;
49123;SDS011;48506;48.202;16.274;2024-03-06T06:45:35;53.70;;;24.77;;
49123;SDS011;48506;48.202;16.274;2024-03-06T06:48:03;45.08;;;22.85;;
49123;SDS011;48506;48.202;16.274;2024-03-06T06:50:29;44.45;;;23.95;;
49123;SDS011;48506;48.202;16.274;2024-03-06T06:52:56;48.63;;;23.13;;
49123;SDS011;48506;48.202;16.274;2024-03-06T06:55:24;46.63;;;25.05;;
49123;SDS011;48506;48.202;16.274;2024-03-06T06:57:50;43.25;;;23.58;;
49123;SDS011;48506;48.202;16.274;2024-03-06T07:00:16;42.05;;;22.25;;
49123;SDS011;48506;48.202;16.274;2024-03-06T07:02:44;47.70;;;25.33;;
49123;SDS011;48506;48.202;16.274;2024-03-06T07:05:10;42.85;;;21.60;;
49123;SDS011;48506;48.202;16.274;2024-03-06T07:07:37;50.47;;;23.67;;
49123;SDS011;48506;48.202;16.274;2024-03-06T07:10:03;41.38;;;20.67;;
49123;SDS011;48506;48.202;16.274;2024-03-06T07:12:30;41.30;;;21.80;;
49123;SDS011;48506;48.202;16.274;2024-03-06T07:14:56;43.33;;;21.83;;
49123;SDS011;48506;48.202;16.274;2024-03-06T07:17:22;37.83;;;22.55;;
49123;SDS011;48506;48.202;16.274;2024-03-06T07:19:49;40.55;;;20.92;;
49123;SDS011;48506;48.202;16.274;2024-03-06T07:22:16;38.45;;;20.85;;
49123;SDS011;48506;48.202;16.274;2024-03-06T07:24:42;35.17;;;20.40;;
49123;SDS011;48506;48.202;16.274;2024-03-06T07:27:09;38.60;;;21.90;;
49123;SDS011;48506;48.202;16.274;2024-03-06T07:29:35;46.70;;;24.55;;
49123;SDS011;48506;48.202;16.274;2024-03-06T07:32:01;40.78;;;21.10;;
49123;SDS011;48506;48.202;16.274;2024-03-06T07:34:28;36.33;;;20.38;;
49123;SDS011;48506;48.202;16.274;2024-03-06T07:36:54;37.72;;;20.40;;
49123;SDS011;48506;48.202;16.274;2024-03-06T07:39:20;38.60;;;20.60;;
49123;SDS011;48506;48.202;16.274;2024-03-06T07:41:46;32.55;;;19.27;;
49123;SDS011;48506;48.202;16.274;2024-03-06T07:44:12;37.50;;;20.45;;
49123;SDS011;48506;48.202;16.274;2024-03-06T07:46:38;36.83;;;20.27;;
49123;SDS011;48506;48.202;16.274;2024-03-06T07:49:04;36.10;;;20.63;;
49123;SDS011;48506;48.202;16.274;2024-03-06T07:51:33;32.22;;;20.95;;
49123;SDS011;48506;48.202;16.274;2024-03-06T07:53:59;33.55;;;20.00;;
49123;SDS011;48506;48.202;16.274;2024-03-06T07:56:26;31.65;;;19.92;;
49123;SDS011;48506;48.202;16.274;2024-03-06T07:58:53;34.72;;;19.63;;
49123;SDS011;48506;48.202;16.274;2024-03-06T08:01:20;31.83;;;19.05;;
49123;SDS011;48506;48.202;16.274;2024-03-06T08:03:47;34.88;;;20.35;;
49123;SDS011;48506;48.202;16.274;2024-03-06T08:06:13;33.00;;;18.40;;
49123;SDS011;48506;48.202;16.274;2024-03-06T08:08:42;34.95;;;19.00;;
49123;SDS011;48506;48.202;16.274;2024-03-06T08:11:12;30.85;;;19.25;;
49123;SDS011;48506;48.202;16.274;2024-03-06T08:13:39;28.98;;;18.15;;
49123;SDS011;48506;48.202;16.274;2024-03-06T08:16:05;33.60;;;17.65;;
49123;SDS011;48506;48.202;16.274;2024-03-06T08:18:32;36.15;;;20.52;;
49123;SDS011;48506;48.202;16.274;2024-03-06T08:21:01;31.17;;;18.52;;
49123;SDS011;48506;48.202;16.274;2024-03-06T08:23:28;29.80;;;19.25;;
49123;SDS011;48506;48.202;16.274;2024-03-06T08:25:55;29.83;;;18.25;;
49123;SDS011;48506;48.202;16.274;2024-03-06T08:28:21;27.33;;;17.60;;
49123;SDS011;48506;48.202;16.274;2024-03-06T08:30:47;30.40;;;17.98;;
49123;SDS011;48506;48.202;16.274;2024-03-06T08:33:13;32.65;;;17.80;;
49123;SDS011;48506;48.202;16.274;2024-03-06T08:35:39;31.75;;;19.45;;
49123;SDS011;48506;48.202;16.274;2024-03-06T08:38:05;32.80;;;19.45;;
49123;SDS011;48506;48.202;16.274;2024-03-06T08:40:31;32.35;;;18.98;;
49123;SDS011;48506;48.202;16.274;2024-03-06T08:42:59;30.77;;;18.85;;
49123;SDS011;48506;48.202;16.274;2024-03-06T08:45:25;30.45;;;17.50;;
49123;SDS011;48506;48.202;16.274;2024-03-06T08:47:50;32.33;;;17.83;;
49123;SDS011;48506;48.202;16.274;2024-03-06T08:50:19;28.17;;;17.00;;
49123;SDS011;48506;48.202;16.274;2024-03-06T08:52:46;25.80;;;16.50;;
49123;SDS011;48506;48.202;16.274;2024-03-06T08:55:12;30.63;;;17.30;;
49123;SDS011;48506;48.202;16.274;2024-03-06T08:57:39;23.60;;;15.50;;
49123;SDS011;48506;48.202;16.274;2024-03-06T09:00:05;27.83;;;17.50;;
49123;SDS011;48506;48.202;16.274;2024-03-06T09:02:37;24.92;;;16.23;;
49123;SDS011;48506;48.202;16.274;2024-03-06T09:05:06;28.98;;;17.92;;
49123;SDS011;48506;48.202;16.274;2024-03-06T09:07:35;27.40;;;18.10;;
49123;SDS011;48506;48.202;16.274;2024-03-06T09:10:06;30.50;;;17.75;;
49123;SDS011;48506;48.202;16.274;2024-03-06T09:12:33;33.25;;;18.55;;
49123;SDS011;48506;48.202;16.274;2024-03-06T09:14:59;33.13;;;19.23;;
49123;SDS011;48506;48.202;16.274;2024-03-06T09:17:27;27.73;;;18.05;;
49123;SDS011;48506;48.202;16.274;2024-03-06T09:19:53;28.20;;;18.33;;
49123;SDS011;48506;48.202;16.274;2024-03-06T09:22:19;31.70;;;19.05;;
49123;SDS011;48506;48.202;16.274;2024-03-06T09:24:45;31.33;;;20.15;;
49123;SDS011;48506;48.202;16.274;2024-03-06T09:27:13;29.65;;;19.38;;
49123;SDS011;48506;48.202;16.274;2024-03-06T09:29:40;29.92;;;18.92;;
49123;SDS011;48506;48.202;16.274;2024-03-06T09:32:06;30.52;;;19.23;;
49123;SDS011;48506;48.202;16.274;2024-03-06T09:34:32;29.58;;;18.98;;
49123;SDS011;48506;48.202;16.274;2024-03-06T09:36:58;32.63;;;20.08;;
49123;SDS011;48506;48.202;16.274;2024-03-06T09:39:24;27.90;;;18.65;;
49123;SDS011;48506;48.202;16.274;2024-03-06T09:41:51;26.15;;;17.13;;
49123;SDS011;48506;48.202;16.274;2024-03-06T09:44:19;27.83;;;18.98;;
49123;SDS011;48506;48.202;16.274;2024-03-06T09:46:47;28.60;;;17.77;;
49123;SDS011;48506;48.202;16.274;2024-03-06T09:49:15;30.52;;;17.80;;
49123;SDS011;48506;48.202;16.274;2024-03-06T09:51:48;27.42;;;16.67;;
49123;SDS011;48506;48.202;16.274;2024-03-06T09:54:23;28.27;;;18.23;;
49123;SDS011;48506;48.202;16.274;2024-03-06T09:56:52;25.63;;;17.58;;
49123;SDS011;48506;48.202;16.274;2024-03-06T09:59:21;30.08;;;17.52;;
49123;SDS011;48506;48.202;16.274;2024-03-06T10:01:50;26.30;;;16.60;;
49123;SDS011;48506;48.202;16.274;2024-03-06T10:04:21;25.90;;;17.02;;
49123;SDS011;48506;48.202;16.274;2024-03-06T10:06:48;22.30;;;15.43;;
49123;SDS011;48506;48.202;16.274;2024-03-06T10:09:18;22.73;;;15.73;;
49123;SDS011;48506;48.202;16.274;2024-03-06T10:11:44;25.65;;;16.00;;
49123;SDS011;48506;48.202;16.274;2024-03-06T10:14:11;21.70;;;14.77;;
49123;SDS011;48506;48.202;16.274;2024-03-06T10:16:37;27.88;;;15.73;;
49123;SDS011;48506;48.202;16.274;2024-03-06T10:19:18;22.00;;;14.20;;
49123;SDS011;48506;48.202;16.274;2024-03-06T10:21:47;25.30;;;15.48;;
49123;SDS011;48506;48.202;16.274;2024-03-06T10:24:24;26.65;;;16.90;;
49123;SDS011;48506;48.202;16.274;2024-03-06T10:26:52;27.42;;;17.15;;
49123;SDS011;48506;48.202;16.274;2024-03-06T10:29:21;24.73;;;15.38;;
49123;SDS011;48506;48.202;16.274;2024-03-06T10:31:53;23.83;;;15.88;;
49123;SDS011;48506;48.202;16.274;2024-03-06T10:34:20;26.35;;;16.23;;
49123;SDS011;48506;48.202;16.274;2024-03-06T10:37:05;23.65;;;14.93;;
49123;SDS011;48506;48.202;16.274;2024-03-06T10:39:34;23.13;;;14.55;;
49123;SDS011;48506;48.202;16.274;2024-03-06T10:42:04;22.75;;;15.02;;
49123;SDS011;48506;48.202;16.274;2024-03-06T10:44:34;15.40;;;10.98;;
49123;SDS011;48506;48.202;16.274;2024-03-06T10:47:02;18.38;;;13.10;;
49123;SDS011;48506;48.202;16.274;2024-03-06T10:49:31;22.10;;;13.88;;
49123;SDS011;48506;48.202;16.274;2024-03-06T10:52:00;21.92;;;14.00;;
49123;SDS011;48506;48.202;16.274;2024-03-06T10:54:32;18.73;;;13.10;;
49123;SDS011;48506;48.202;16.274;2024-03-06T10:57:00;24.73;;;15.80;;
49123;SDS011;48506;48.202;16.274;2024-03-06T10:59:27;23.63;;;15.20;;
49123;SDS011;48506;48.202;16.274;2024-03-06T11:01:58;25.08;;;16.73;;
49123;SDS011;48506;48.202;16.274;2024-03-06T11:04:28;24.58;;;15.60;;
49123;SDS011;48506;48.202;16.274;2024-03-06T11:06:59;24.40;;;15.40;;
49123;SDS011;48506;48.202;16.274;2024-03-06T11:09:27;24.65;;;14.25;;
49123;SDS011;48506;48.202;16.274;2024-03-06T11:12:01;27.02;;;15.77;;
49123;SDS011;48506;48.202;16.274;2024-03-06T11:14:29;24.27;;;15.65;;
49123;SDS011;48506;48.202;16.274;2024-03-06T11:16:57;21.58;;;14.90;;
49123;SDS011;48506;48.202;16.274;2024-03-06T11:19:32;21.55;;;14.43;;
49123;SDS011;48506;48.202;16.274;2024-03-06T11:22:18;23.88;;;16.17;;
49123;SDS011;48506;48.202;16.274;2024-03-06T11:28:16;22.58;;;13.82;;
49123;SDS011;48506;48.202;16.274;2024-03-06T11:30:47;21.50;;;13.70;;
49123;SDS011;48506;48.202;16.274;2024-03-06T11:33:20;25.63;;;14.95;;
49123;SDS011;48506;48.202;16.274;2024-03-06T11:39:02;25.23;;;16.02;;
49123;SDS011;48506;48.202;16.274;2024-03-06T11:44:12;23.98;;;16.00;;
49123;SDS011;48506;48.202;16.274;2024-03-06T11:49:30;28.85;;;15.75;;
49123;SDS011;48506;48.202;16.274;2024-03-06T11:52:02;24.15;;;14.85;;
49123;SDS011;48506;48.202;16.274;2024-03-06T11:54:34;22.38;;;14.80;;
49123;SDS011;48506;48.202;16.274;2024-03-06T11:57:01;22.92;;;16.20;;
49123;SDS011;48506;48.202;16.274;2024-03-06T11:59:29;21.83;;;14.77;;
49123;SDS011;48506;48.202;16.274;2024-03-06T12:01:59;22.58;;;15.27;;
49123;SDS011;48506;48.202;16.274;2024-03-06T12:04:30;25.85;;;14.93;;
49123;SDS011;48506;48.202;16.274;2024-03-06T12:06:58;24.08;;;15.98;;
49123;SDS011;48506;48.202;16.274;2024-03-06T12:09:25;26.65;;;16.05;;
49123;SDS011;48506;48.202;16.274;2024-03-06T12:11:52;27.13;;;15.75;;
49123;SDS011;48506;48.202;16.274;2024-03-06T12:14:21;28.63;;;17.55;;
49123;SDS011;48506;48.202;16.274;2024-03-06T12:17:00;24.88;;;15.82;;
49123;SDS011;48506;48.202;16.274;2024-03-06T12:19:34;24.98;;;15.95;;
49123;SDS011;48506;48.202;16.274;2024-03-06T12:24:29;26.58;;;16.70;;
49123;SDS011;48506;48.202;16.274;2024-03-06T12:27:01;22.73;;;15.80;;
49123;SDS011;48506;48.202;16.274;2024-03-06T12:29:29;28.30;;;16.60;;
49123;SDS011;48506;48.202;16.274;2024-03-06T12:31:57;25.58;;;17.77;;
49123;SDS011;48506;48.202;16.274;2024-03-06T12:34:26;22.80;;;15.98;;
49123;SDS011;48506;48.202;16.274;2024-03-06T12:36:53;23.55;;;16.30;;
49123;SDS011;48506;48.202;16.274;2024-03-06T12:39:19;25.48;;;17.77;;
49123;SDS011;48506;48.202;16.274;2024-03-06T12:41:51;28.42;;;17.70;;
49123;SDS011;48506;48.202;16.274;2024-03-06T12:44:19;30.50;;;18.52;;
49123;SDS011;48506;48.202;16.274;2024-03-06T12:46:46;26.08;;;15.70;;
49123;SDS011;48506;48.202;16.274;2024-03-06T12:49:12;27.02;;;17.60;;
49123;SDS011;48506;48.202;16.274;2024-03-06T12:51:37;23.67;;;15.50;;
49123;SDS011;48506;48.202;16.274;2024-03-06T12:54:03;29.00;;;16.48;;
49123;SDS011;48506;48.202;16.274;2024-03-06T12:56:29;28.85;;;17.95;;
49123;SDS011;48506;48.202;16.274;2024-03-06T12:58:55;24.75;;;16.63;;
49123;SDS011;48506;48.202;16.274;2024-03-06T13:01:21;24.80;;;16.63;;
49123;SDS011;48506;48.202;16.274;2024-03-06T13:03:47;31.17;;;16.38;;
49123;SDS011;48506;48.202;16.274;2024-03-06T13:06:14;26.40;;;16.30;;
49123;SDS011;48506;48.202;16.274;2024-03-06T13:08:40;29.30;;;18.88;;
49123;SDS011;48506;48.202;16.274;2024-03-06T13:11:06;24.00;;;16.10;;
49123;SDS011;48506;48.202;16.274;2024-03-06T13:13:34;31.40;;;18.33;;
49123;SDS011;48506;48.202;16.274;2024-03-06T13:16:01;30.30;;;17.80;;
49123;SDS011;48506;48.202;16.274;2024-03-06T13:18:27;28.73;;;18.60;;
49123;SDS011;48506;48.202;16.274;2024-03-06T13:20:53;34.22;;;18.55;;
49123;SDS011;48506;48.202;16.274;2024-03-06T13:23:19;30.90;;;17.77;;
49123;SDS011;48506;48.202;16.274;2024-03-06T13:25:45;30.55;;;16.92;;
49123;SDS011;48506;48.202;16.274;2024-03-06T13:28:12;26.30;;;17.58;;
49123;SDS011;48506;48.202;16.274;2024-03-06T13:30:38;28.45;;;15.27;;
49123;SDS011;48506;48.202;16.274;2024-03-06T13:33:04;29.55;;;18.20;;
49123;SDS011;48506;48.202;16.274;2024-03-06T13:35:31;29.17;;;16.52;;
49123;SDS011;48506;48.202;16.274;2024-03-06T13:37:57;30.27;;;17.42;;
49123;SDS011;48506;48.202;16.274;2024-03-06T13:40:23;34.55;;;18.73;;
49123;SDS011;48506;48.202;16.274;2024-03-06T13:42:51;26.77;;;18.48;;
49123;SDS011;48506;48.202;16.274;2024-03-06T13:45:17;28.85;;;16.42;;
49123;SDS011;48506;48.202;16.274;2024-03-06T13:47:43;29.83;;;18.23;;
49123;SDS011;48506;48.202;16.274;2024-03-06T13:50:11;26.65;;;16.80;;
49123;SDS011;48506;48.202;16.274;2024-03-06T13:52:40;29.42;;;16.70;;
49123;SDS011;48506;48.202;16.274;2024-03-06T13:55:07;24.52;;;15.15;;
49123;SDS011;48506;48.202;16.274;2024-03-06T13:57:35;28.60;;;16.35;;
49123;SDS011;48506;48.202;16.274;2024-03-06T14:00:02;28.38;;;16.52;;
49123;SDS011;48506;48.202;16.274;2024-03-06T14:02:40;27.60;;;16.90;;
49123;SDS011;48506;48.202;16.274;2024-03-06T14:05:06;27.05;;;16.02;;
49123;SDS011;48506;48.202;16.274;2024-03-06T14:07:33;28.40;;;15.32;;
49123;SDS011;48506;48.202;16.274;2024-03-06T14:10:01;24.15;;;15.10;;
49123;SDS011;48506;48.202;16.274;2024-03-06T14:12:27;24.33;;;15.98;;
49123;SDS011;48506;48.202;16.274;2024-03-06T14:14:53;26.58;;;16.10;;
49123;SDS011;48506;48.202;16.274;2024-03-06T14:17:20;28.40;;;16.30;;
49123;SDS011;48506;48.202;16.274;2024-03-06T14:19:46;24.35;;;15.60;;
49123;SDS011;48506;48.202;16.274;2024-03-06T14:22:11;25.08;;;14.82;;
49123;SDS011;48506;48.202;16.274;2024-03-06T14:24:37;28.55;;;16.30;;